Time;durP1;ratioP1;P1;durP2;ratioP2;P2;SDS_P1;SDS_P2;PMS_P1;PMS_P2;Temp;Humidity;BMP_temperature;BMP_pressure;BME280_temperature;BME280_humidity;BME280_pressure;Samples;Min_cycle;Max_cycle;Signal;HPM_P1;HPM_P2
2022/01/20 00:00:44;;;;;;;3.40;0.80;;;;;;;3.74;71.44;101973.31;6160222;23;20093;-78
2022/01/20 00:03:14;;;;;;;1.58;0.70;;;;;;;3.65;71.15;101964.44;6183463;23;20036;-77
2022/01/20 00:27:49;;;;;;;3.75;1.02;;;;;;;3.50;71.88;102013.09;6187569;23;20015;-78
2022/01/20 00:33:39;;;;;;;0.47;0.45;;;;;;;3.20;71.78;101991.31;6166977;23;20005;-77
2022/01/20 00:38:56;;;;;;;1.75;0.90;;;;;;;3.15;72.16;102001.81;6151479;23;20016;-74
2022/01/20 00:41:22;;;;;;;8.98;1.58;;;;;;;3.08;72.58;101999.00;6156629;23;20009;-75
2022/01/20 00:43:50;;;;;;;3.92;0.95;;;;;;;3.09;72.39;102013.34;6156693;23;20016;-75
2022/01/20 00:46:15;;;;;;;8.40;1.23;;;;;;;3.09;72.78;102013.34;6182882;23;20761;-76
2022/01/20 00:48:43;;;;;;;1.75;1.02;;;;;;;3.09;72.25;102010.66;6156712;23;20033;-74
2022/01/20 00:51:09;;;;;;;5.28;0.85;;;;;;;3.19;73.51;102032.88;6182184;23;20016;-74
2022/01/20 00:53:44;;;;;;;5.40;0.82;;;;;;;3.09;73.04;102018.75;6156006;23;20013;-74
2022/01/20 00:56:18;;;;;;;10.82;1.50;;;;;;;3.16;73.34;102025.13;6156408;23;20648;-76
2022/01/20 00:58:44;;;;;;;10.23;1.37;;;;;;;3.10;73.17;102017.75;6155572;23;20612;-74
2022/01/20 01:01:12;;;;;;;3.90;1.15;;;;;;;3.14;73.48;102030.72;6155921;23;20012;-75
2022/01/20 01:03:42;;;;;;;6.20;1.27;;;;;;;3.09;73.52;102021.47;6156501;23;20001;-76
2022/01/20 01:06:46;;;;;;;1.30;1.08;;;;;;;3.13;73.30;102029.03;6155384;23;20005;-75
2022/01/20 01:09:12;;;;;;;1.27;0.57;;;;;;;3.11;73.36;102030.22;6156915;23;20009;-77
2022/01/20 01:11:39;;;;;;;4.90;1.02;;;;;;;3.12;73.35;102037.31;6156420;23;20005;-76
2022/01/20 01:14:07;;;;;;;2.15;1.00;;;;;;;3.03;73.19;102022.16;6132690;23;20009;-78
2022/01/20 01:24:54;;;;;;;5.07;1.35;;;;;;;3.02;73.91;102052.91;6193654;23;20016;-81
2022/01/20 01:27:25;;;;;;;2.00;0.90;;;;;;;3.00;74.24;102049.56;6159402;23;20118;-79
2022/01/20 01:30:09;;;;;;;4.82;1.00;;;;;;;2.94;73.55;102040.28;6185909;23;20005;-77
2022/01/20 01:32:50;;;;;;;2.00;0.80;;;;;;;2.91;74.05;102029.81;6182447;23;19997;-77
2022/01/20 01:35:20;;;;;;;7.47;0.70;;;;;;;2.86;73.89;102021.41;6158301;23;20725;-76
2022/01/20 01:40:29;;;;;;;6.95;0.75;;;;;;;2.81;74.06;102053.53;6194209;23;20009;-78
2022/01/20 01:43:26;;;;;;;2.85;1.02;;;;;;;2.73;74.15;102038.16;6157847;23;20080;-78
2022/01/20 01:46:04;;;;;;;;;;;;;;;;;;;;;
2022/01/20 01:48:31;;;;;;;2.83;0.93;;;;;;;2.76;74.12;102032.41;6183539;23;20080;-78
2022/01/20 01:50:59;;;;;;;0.75;0.50;;;;;;;2.76;74.19;102027.84;6155216;23;20033;-78
2022/01/20 01:53:25;;;;;;;4.35;0.52;;;;;;;2.72;73.92;102021.13;6183080;23;20033;-76
2022/01/20 01:55:50;;;;;;;5.13;0.90;;;;;;;2.89;74.19;102043.53;6182755;23;20008;-75
2022/01/20 01:58:21;;;;;;;4.85;1.20;;;;;;;2.85;73.87;102050.28;6182617;23;20037;-76
2022/01/20 02:00:47;;;;;;;1.30;0.60;;;;;;;2.77;74.00;102028.69;6181588;23;20008;-76
2022/01/20 02:03:14;;;;;;;3.15;0.90;;;;;;;2.81;74.28;102040.84;6158535;23;20009;-76
2022/01/20 02:19:32;;;;;;;1.95;0.82;;;;;;;2.67;75.17;102065.88;6183617;23;20091;-75
2022/01/20 02:22:02;;;;;;;;;;;;;;;2.66;74.58;102066.88;6155672;23;20429;-75
2022/01/20 02:24:31;;;;;;;2.28;0.73;;;;;;;2.62;74.78;102067.22;6182590;23;19927;-76
2022/01/20 02:26:58;;;;;;;1.45;1.35;;;;;;;2.49;75.14;102044.50;6184715;23;20421;-75
2022/01/20 02:29:26;;;;;;;1.23;0.77;;;;;;;2.55;74.81;102058.13;6157663;23;20032;-76
2022/01/20 02:32:00;;;;;;;2.35;0.98;;;;;;;2.51;74.91;102040.63;6159356;23;20380;-77
2022/01/20 02:34:29;;;;;;;2.15;0.88;;;;;;;2.53;74.89;102049.38;6157278;23;20359;-75
2022/01/20 02:36:59;;;;;;;3.05;0.70;;;;;;;2.46;75.01;102042.97;6158959;23;20001;-75
2022/01/20 02:39:45;;;;;;;3.55;0.93;;;;;;;2.42;75.04;102042.50;6184848;23;20000;-75
2022/01/20 02:45:02;;;;;;;6.13;1.08;;;;;;;2.49;75.08;102056.13;6161461;23;20487;-75
2022/01/20 02:47:33;;;;;;;1.98;0.80;;;;;;;2.43;75.61;102046.03;6157663;23;20016;-76
2022/01/20 02:49:59;;;;;;;3.28;0.70;;;;;;;2.51;75.24;102066.75;6157713;23;20040;-77
2022/01/20 02:52:29;;;;;;;1.30;0.88;;;;;;;2.40;75.40;102049.91;6185052;23;20008;-76
2022/01/20 02:54:54;;;;;;;11.35;0.98;;;;;;;2.54;75.23;102067.28;6184204;23;20005;-76
2022/01/20 02:57:30;;;;;;;3.05;1.05;;;;;;;2.52;75.67;102060.34;6156820;23;20413;-75
2022/01/20 02:59:55;;;;;;;6.45;1.15;;;;;;;2.44;75.35;102056.66;6180178;23;20009;-74
2022/01/20 03:02:21;;;;;;;2.83;0.75;;;;;;;2.32;75.58;102035.56;6157557;23;20009;-76
2022/01/20 03:04:47;;;;;;;4.88;0.50;;;;;;;2.52;75.71;102074.69;6186010;23;20009;-77
2022/01/20 03:07:15;;;;;;;10.07;1.33;;;;;;;2.44;76.04;102061.22;6134188;23;20080;-76
2022/01/20 03:09:40;;;;;;;4.32;0.52;;;;;;;2.47;75.59;102060.88;6158297;23;20009;-77
2022/01/20 03:12:07;;;;;;;2.15;0.70;;;;;;;2.46;75.74;102072.69;6136631;23;20005;-76
2022/01/20 03:14:35;;;;;;;3.78;1.00;;;;;;;2.35;75.68;102046.88;6161266;23;20009;-75
2022/01/20 03:17:05;;;;;;;2.25;0.88;;;;;;;2.47;75.90;102066.28;6190039;23;20009;-75
2022/01/20 03:19:31;;;;;;;8.45;1.05;;;;;;;2.55;75.94;102090.53;6180819;23;20009;-75
2022/01/20 03:21:56;;;;;;;5.82;0.60;;;;;;;2.53;75.80;102089.88;6177253;23;20028;-76
2022/01/20 03:24:27;;;;;;;3.97;0.80;;;;;;;2.56;76.27;102094.94;6150957;23;20013;-76
2022/01/20 03:26:55;;;;;;;1.85;0.57;;;;;;;2.52;75.99;102090.88;6160906;23;20016;-76
2022/01/20 03:29:21;;;;;;;4.28;1.27;;;;;;;2.48;75.95;102094.94;6159501;23;20005;-76
2022/01/20 03:31:46;;;;;;;2.05;0.80;;;;;;;2.44;75.98;102093.63;6184595;23;20016;-77
2022/01/20 03:34:14;;;;;;;1.65;0.57;;;;;;;2.47;75.53;102095.13;6183930;23;20017;-77
2022/01/20 03:36:42;;;;;;;0.85;0.45;;;;;;;2.39;75.84;102087.88;6156335;23;20009;-76
2022/01/20 03:39:18;;;;;;;6.18;0.82;;;;;;;2.40;76.36;102103.06;6184276;23;20091;-76
2022/01/20 03:41:46;;;;;;;3.20;1.20;;;;;;;2.35;76.27;102094.63;6157011;23;20375;-77
2022/01/20 03:44:16;;;;;;;5.15;1.73;;;;;;;2.37;76.16;102101.56;6157009;23;20001;-76
2022/01/20 03:46:44;;;;;;;1.40;0.55;;;;;;;2.36;75.70;102107.94;6132455;23;20016;-76
2022/01/20 03:49:24;;;;;;;1.70;0.85;;;;;;;2.31;75.92;102098.69;6156623;23;20541;-76
2022/01/20 03:51:54;;;;;;;3.70;0.88;;;;;;;2.41;76.14;102107.44;6159948;23;20363;-76
2022/01/20 03:54:20;;;;;;;3.00;0.60;;;;;;;2.36;75.92;102115.22;6157220;23;20063;-77
2022/01/20 03:56:46;;;;;;;1.05;0.50;;;;;;;2.31;76.18;102114.88;6157842;23;20380;-78
2022/01/20 03:59:32;;;;;;;1.15;0.60;;;;;;;2.23;76.01;102108.50;6157495;23;20008;-78
2022/01/20 04:01:57;;;;;;;1.65;0.52;;;;;;;2.25;76.15;102111.84;6184736;23;20001;-78
2022/01/20 04:04:22;;;;;;;3.58;0.40;;;;;;;2.34;75.99;102130.75;6157807;23;20031;-76
2022/01/20 04:06:51;;;;;;;5.95;1.05;;;;;;;2.40;76.22;102122.81;6181126;23;20084;-75
2022/01/20 04:09:21;;;;;;;3.45;1.00;;;;;;;2.48;76.07;102127.34;6183801;23;20004;-76
2022/01/20 04:11:53;;;;;;;3.60;0.68;;;;;;;2.40;76.35;102116.56;6183181;23;20068;-75
2022/01/20 04:14:23;;;;;;;4.57;0.98;;;;;;;2.49;76.47;102129.03;6160491;23;20005;-75
2022/01/20 04:19:21;;;;;;;4.05;0.88;;;;;;;2.47;75.83;102122.97;6192594;23;20016;-74
2022/01/20 04:21:47;;;;;;;1.60;0.70;;;;;;;2.41;76.27;102110.13;6157507;23;20013;-75
2022/01/20 04:24:15;;;;;;;1.58;0.50;;;;;;;2.47;76.32;102116.72;6183605;23;20009;-75
2022/01/20 04:26:44;;;;;;;1.83;0.38;;;;;;;2.42;76.07;102119.94;6182292;23;20047;-74
2022/01/20 04:29:15;;;;;;;6.03;1.20;;;;;;;2.55;76.25;102135.63;6157536;23;20044;-75
2022/01/20 04:31:43;;;;;;;4.35;0.98;;;;;;;2.53;76.22;102135.78;6157201;23;20013;-75
2022/01/20 04:34:13;;;;;;;1.85;0.60;;;;;;;2.48;76.12;102129.22;6182629;23;20072;-74
2022/01/20 04:36:44;;;;;;;2.08;0.73;;;;;;;2.42;75.77;102125.34;6157265;23;20063;-74
2022/01/20 04:39:15;;;;;;;1.63;0.50;;;;;;;2.34;76.17;102110.00;6181289;23;20447;-74
2022/01/20 04:41:40;;;;;;;8.32;0.50;;;;;;;2.25;76.06;102095.66;6183698;23;20128;-74
2022/01/20 04:44:34;;;;;;;4.63;0.80;;;;;;;2.27;76.20;102090.91;6154289;23;20028;-73
2022/01/20 04:47:28;;;;;;;2.95;0.50;;;;;;;2.34;75.85;102101.06;6155504;23;20008;-73
2022/01/20 04:58:02;;;;;;;9.85;1.17;;;;;;;2.39;76.23;102122.97;6182986;23;20081;-75
2022/01/20 05:00:33;;;;;;;3.15;0.80;;;;;;;2.33;75.68;102110.16;6182668;23;20001;-73
2022/01/20 05:03:04;;;;;;;1.80;0.50;;;;;;;2.39;76.01;102122.97;6160352;23;20427;-75
2022/01/20 05:05:32;;;;;;;1.77;0.82;;;;;;;2.34;75.94;102117.25;6160338;23;20020;-73
2022/01/20 05:08:01;;;;;;;6.90;0.98;;;;;;;2.32;76.33;102120.09;6185351;23;20009;-74
2022/01/20 05:10:30;;;;;;;6.07;0.98;;;;;;;2.29;75.78;102131.25;6199876;23;20008;-73
2022/01/20 05:15:23;;;;;;;7.50;1.23;;;;;;;2.08;76.06;102115.56;6202823;23;20012;-74
2022/01/20 05:17:54;;;;;;;7.38;1.05;;;;;;;2.11;75.85;102126.03;6161957;23;19997;-75
2022/01/20 05:20:43;;;;;;;8.85;1.02;;;;;;;2.05;76.05;102113.22;6157757;23;20444;-73
2022/01/20 05:23:07;;;;;;;2.42;0.93;;;;;;;2.09;75.98;102142.38;6182741;23;20349;-74
2022/01/20 05:25:35;;;;;;;5.22;1.02;;;;;;;2.16;76.02;102166.00;6154607;23;20106;-74
2022/01/20 05:28:04;;;;;;;2.63;0.88;;;;;;;2.12;76.78;102154.72;6183435;23;20013;-73
2022/01/20 05:30:29;;;;;;;2.78;0.80;;;;;;;2.13;76.28;102155.53;6182959;23;20005;-75
2022/01/20 05:32:58;;;;;;;3.13;1.08;;;;;;;2.17;76.49;102165.00;6180749;23;20446;-74
2022/01/20 05:35:23;;;;;;;5.57;0.80;;;;;;;2.12;76.34;102164.63;6157266;23;20005;-75
2022/01/20 05:37:49;;;;;;;9.23;1.55;;;;;;;2.06;75.86;102150.00;6129975;23;20009;-74
2022/01/20 05:40:14;;;;;;;16.27;1.20;;;;;;;2.09;76.34;102171.25;6183381;23;20009;-74
2022/01/20 05:42:40;;;;;;;4.78;1.10;;;;;;;2.14;76.23;102179.66;6155861;23;20005;-73
2022/01/20 05:45:06;;;;;;;11.50;0.60;;;;;;;2.24;76.86;102193.84;6154740;23;20105;-73
2022/01/20 05:47:35;;;;;;;6.88;1.05;;;;;;;2.22;76.35;102187.78;6182196;23;20013;-73
2022/01/20 05:50:03;;;;;;;9.15;0.50;;;;;;;2.11;76.39;102171.06;6154575;23;20009;-74
2022/01/20 05:52:41;;;;;;;;;;;;;;;;;;;;;
2022/01/20 05:55:24;;;;;;;4.07;1.33;;;;;;;2.04;76.62;102162.78;6157830;23;20077;-74
2022/01/20 05:58:00;;;;;;;1.52;0.70;;;;;;;2.10;76.49;102151.31;6183652;23;20071;-74
2022/01/20 06:00:30;;;;;;;;;;;;;;;2.23;76.63;102177.81;6158668;23;20001;-74
2022/01/20 06:06:00;;;;;;;5.90;0.73;;;;;;;2.19;76.62;102189.94;6063687;23;20138;-74
2022/01/20 06:08:26;;;;;;;3.67;0.75;;;;;;;2.19;76.49;102193.53;6063360;23;20427;-75
2022/01/20 06:10:51;;;;;;;4.53;1.17;;;;;;;2.17;76.41;102192.00;6063879;23;20018;-74
2022/01/20 06:13:17;;;;;;;1.80;0.70;;;;;;;2.07;76.66;102193.00;6063006;23;20007;-75
2022/01/20 06:15:43;;;;;;;3.03;1.10;;;;;;;2.11;76.32;102200.75;6063488;23;20264;-74
2022/01/20 06:18:21;;;;;;;;;;;;;;;;;;;;;
2022/01/20 06:20:47;;;;;;;8.90;1.27;;;;;;;2.05;77.24;102213.06;6181627;23;20515;-74
2022/01/20 06:23:13;;;;;;;2.50;0.50;;;;;;;2.01;77.28;102211.69;6181910;23;20044;-73
2022/01/20 06:25:39;;;;;;;3.40;1.15;;;;;;;1.88;76.33;102198.69;6183075;23;20043;-74
2022/01/20 06:28:04;;;;;;;9.38;0.98;;;;;;;1.91;76.79;102201.91;6132389;23;20385;-74
2022/01/20 06:30:33;;;;;;;8.18;0.55;;;;;;;1.90;76.90;102199.38;6155775;23;20008;-73
2022/01/20 06:33:20;;;;;;;4.95;0.90;;;;;;;1.79;76.99;102195.13;6183347;23;20008;-75
2022/01/20 06:35:49;;;;;;;3.42;0.80;;;;;;;1.76;76.49;102200.84;6156160;23;20005;-75
2022/01/20 06:38:18;;;;;;;3.80;0.68;;;;;;;1.74;76.82;102205.56;6182167;23;20639;-74
2022/01/20 06:40:44;;;;;;;4.80;0.98;;;;;;;1.67;76.70;102199.13;6182344;23;20008;-73
2022/01/20 06:43:09;;;;;;;4.53;0.80;;;;;;;1.72;77.15;102230.00;6183549;23;20088;-74
2022/01/20 06:45:35;;;;;;;2.60;0.60;;;;;;;1.67;76.70;102228.81;6155967;23;20005;-73
2022/01/20 06:48:00;;;;;;;5.35;0.68;;;;;;;1.69;76.82;102246.50;6134553;23;20016;-73
2022/01/20 06:50:33;;;;;;;7.15;0.57;;;;;;;1.62;76.80;102239.22;6183249;23;20009;-74
2022/01/20 06:53:02;;;;;;;6.13;0.93;;;;;;;1.62;76.79;102239.22;6158462;23;20063;-74
2022/01/20 06:55:40;;;;;;;;;;;;;;;;;;;;;
2022/01/20 06:58:06;;;;;;;2.35;0.80;;;;;;;1.51;76.88;102230.41;6181182;23;20004;-71
2022/01/20 07:00:32;;;;;;;0.38;0.35;;;;;;;1.60;77.28;102246.63;6181690;23;20036;-72
2022/01/20 07:03:00;;;;;;;0.85;0.30;;;;;;;1.52;77.17;102253.69;6155840;23;20009;-74
2022/01/20 07:05:26;;;;;;;1.75;0.30;;;;;;;1.50;77.20;102250.28;6158905;23;20088;-75
2022/01/20 07:07:51;;;;;;;0.80;0.47;;;;;;;1.44;77.08;102242.84;6157200;23;20420;-75
2022/01/20 07:10:18;;;;;;;1.00;0.32;;;;;;;1.47;76.75;102253.31;6133534;23;20388;-74
2022/01/20 07:12:48;;;;;;;1.58;0.73;;;;;;;1.39;76.87;102234.41;6184203;23;20023;-73
2022/01/20 07:15:26;;;;;;;;;;;;;;;;;;;;;
2022/01/20 07:17:54;;;;;;;3.38;0.98;;;;;;;1.44;76.69;102267.09;6185480;23;20079;-74
2022/01/20 07:20:32;;;;;;;;;;;;;;;;;;;;;
2022/01/20 07:23:07;;;;;;;0.82;0.80;;;;;;;1.27;77.27;102246.47;6181987;23;20108;-73
2022/01/20 07:25:35;;;;;;;0.47;0.30;;;;;;;1.36;76.65;102267.91;6182731;23;20001;-73
2022/01/20 07:28:08;;;;;;;0.65;0.30;;;;;;;1.24;76.73;102260.25;6183588;23;20005;-72
2022/01/20 07:30:34;;;;;;;0.20;0.10;;;;;;;1.24;77.24;102262.94;6157253;23;20031;-73
2022/01/20 07:33:05;;;;;;;0.10;0.10;;;;;;;1.20;76.92;102270.53;6158810;23;20416;-73
2022/01/20 07:35:30;;;;;;;0.22;0.20;;;;;;;1.16;76.73;102272.69;6157127;23;20009;-72
2022/01/20 07:37:56;;;;;;;0.50;0.05;;;;;;;1.12;77.11;102276.69;6183927;23;20622;-72
2022/01/20 07:40:24;;;;;;;0.28;0.20;;;;;;;1.11;76.41;102284.94;6158762;23;20454;-76
2022/01/20 07:46:20;;;;;;;0.17;0.13;;;;;;;1.11;77.21;102299.25;6123116;23;20006;-75
2022/01/20 07:48:45;;;;;;;0.22;0.08;;;;;;;0.91;76.87;102285.13;6183927;23;20025;-76
2022/01/20 07:51:11;;;;;;;0.55;0.20;;;;;;;1.02;76.24;102302.88;6183492;23;19997;-75
2022/01/20 07:53:37;;;;;;;0.95;0.30;;;;;;;0.97;77.49;102297.13;6155581;23;20016;-76
2022/01/20 07:56:14;;;;;;;1.65;0.82;;;;;;;1.04;77.62;102306.28;6107230;23;20023;-76
2022/01/20 07:58:47;;;;;;;4.85;1.08;;;;;;;1.04;77.10;102306.28;6155864;23;20040;-77
2022/01/20 08:01:15;;;;;;;10.05;1.00;;;;;;;1.03;77.12;102304.59;6157653;23;20016;-75
2022/01/20 08:03:43;;;;;;;6.82;0.90;;;;;;;1.12;77.46;102309.03;6183163;23;19997;-75
2022/01/20 08:06:11;;;;;;;7.45;1.52;;;;;;;1.11;77.44;102306.47;6132679;23;20031;-78
2022/01/20 08:08:36;;;;;;;2.80;1.00;;;;;;;1.16;78.12;102305.00;6182780;23;20087;-75
2022/01/20 08:11:04;;;;;;;1.67;0.60;;;;;;;1.24;78.17;102311.47;6134317;23;20603;-77
2022/01/20 08:13:30;;;;;;;6.75;0.98;;;;;;;1.17;78.32;102309.41;6155718;23;20060;-76
2022/01/20 08:15:55;;;;;;;1.98;0.80;;;;;;;1.25;78.22;102313.16;6175029;23;20147;-76
2022/01/20 08:18:21;;;;;;;6.32;1.23;;;;;;;1.31;77.47;102317.91;6130357;23;20071;-76
2022/01/20 08:20:49;;;;;;;3.50;0.80;;;;;;;1.44;77.52;102334.50;6131029;23;20012;-75
2022/01/20 08:23:14;;;;;;;2.35;0.70;;;;;;;1.40;78.46;102333.13;6125608;23;20026;-76
2022/01/20 08:25:40;;;;;;;2.65;0.90;;;;;;;1.41;78.27;102329.44;6149942;23;20013;-74
2022/01/20 08:28:05;;;;;;;1.98;0.75;;;;;;;1.45;77.65;102329.97;6095189;23;20057;-76
2022/01/20 08:30:31;;;;;;;9.25;0.70;;;;;;;1.53;77.83;102338.09;6144305;23;20040;-75
2022/01/20 08:32:57;;;;;;;2.40;0.90;;;;;;;1.53;78.36;102328.19;6122961;23;20014;-76
2022/01/20 08:35:25;;;;;;;3.28;0.80;;;;;;;1.74;78.48;102362.00;6144299;23;20041;-76
2022/01/20 08:37:59;;;;;;;2.30;0.50;;;;;;;1.71;78.18;102357.78;6124622;23;20120;-76
2022/01/20 08:41:08;;;;;;;0.80;0.52;;;;;;;1.91;77.92;102379.97;6146347;23;20014;-75
2022/01/20 08:43:38;;;;;;;1.42;0.82;;;;;;;1.85;78.00;102364.41;6144074;23;20016;-76
2022/01/20 08:46:07;;;;;;;2.58;0.82;;;;;;;2.04;77.59;102384.91;6152762;23;20032;-78
2022/01/20 08:48:33;;;;;;;3.83;1.05;;;;;;;2.00;77.98;102366.50;6151910;23;20024;-76
2022/01/20 08:50:59;;;;;;;2.78;0.93;;;;;;;2.09;77.11;102365.56;6126668;23;20420;-76
2022/01/20 08:53:26;;;;;;;3.38;1.10;;;;;;;2.22;77.77;102370.47;6150626;23;20013;-76
2022/01/20 08:55:54;;;;;;;2.47;0.70;;;;;;;2.33;77.49;102382.84;6156040;23;20009;-77
2022/01/20 08:58:47;;;;;;;;;;;;;;;;;;;;;
2022/01/20 09:01:27;;;;;;;1.30;0.82;;;;;;;2.34;77.06;102374.59;6167326;23;20005;-76
2022/01/20 09:03:53;;;;;;;3.22;0.95;;;;;;;2.53;76.88;102395.06;6131257;23;20014;-76
2022/01/20 09:06:20;;;;;;;2.15;0.85;;;;;;;2.63;77.40;102405.75;6154316;23;20009;-75
2022/01/20 09:08:47;;;;;;;1.98;0.60;;;;;;;2.71;77.11;102402.22;6151582;23;20015;-76
2022/01/20 09:11:22;;;;;;;1.40;0.45;;;;;;;2.85;76.80;102409.69;6152788;23;20396;-76
2022/01/20 09:16:33;;;;;;;1.95;0.55;;;;;;;3.01;76.86;102413.41;6154937;23;20016;-75
2022/01/20 09:19:02;;;;;;;2.97;1.05;;;;;;;3.06;76.93;102416.47;6125515;23;20377;-76
2022/01/20 09:21:30;;;;;;;5.07;0.65;;;;;;;3.13;76.60;102412.06;6158104;23;20021;-76
2022/01/20 09:23:56;;;;;;;2.40;0.60;;;;;;;3.34;76.42;102435.91;6156373;23;20005;-76
2022/01/20 09:26:23;;;;;;;2.40;0.50;;;;;;;3.39;76.95;102438.09;6156511;23;20032;-76
2022/01/20 09:28:51;;;;;;;1.85;0.90;;;;;;;3.56;76.72;102438.94;6155006;23;20047;-76
2022/01/20 09:31:22;;;;;;;1.48;0.65;;;;;;;4.08;77.22;102454.78;6156915;23;20009;-76
2022/01/20 09:33:48;;;;;;;9.13;0.80;;;;;;;5.03;76.98;102453.84;6156967;23;20080;-75
2022/01/20 09:36:15;;;;;;;1.88;0.60;;;;;;;6.14;75.13;102455.31;6182145;23;20415;-76
2022/01/20 09:38:41;;;;;;;1.65;0.35;;;;;;;7.33;72.54;102479.56;6154701;23;20001;-75
2022/01/20 09:41:14;;;;;;;3.33;0.70;;;;;;;8.46;70.73;102487.78;6156191;23;20001;-76
2022/01/20 09:43:40;;;;;;;6.40;1.13;;;;;;;9.28;68.45;102484.31;6155021;23;20005;-76
2022/01/20 09:46:08;;;;;;;6.18;0.95;;;;;;;10.11;66.91;102489.41;6180937;23;20001;-75
2022/01/20 09:48:36;;;;;;;6.95;1.23;;;;;;;10.84;65.44;102504.78;6183397;23;20008;-74
2022/01/20 09:51:03;;;;;;;4.57;1.08;;;;;;;11.49;63.91;102509.28;6154523;23;20080;-76
2022/01/20 09:53:31;;;;;;;0.77;0.38;;;;;;;12.12;62.77;102499.31;6133172;23;20009;-75
2022/01/20 09:56:00;;;;;;;1.52;0.43;;;;;;;12.97;62.12;102514.22;6156587;23;20005;-75
2022/01/20 09:58:26;;;;;;;0.75;0.35;;;;;;;13.63;60.93;102519.84;6155427;23;20009;-76
2022/01/20 10:00:51;;;;;;;1.42;0.82;;;;;;;14.05;59.01;102508.78;6155419;23;20016;-76
2022/01/20 10:03:20;;;;;;;3.33;0.68;;;;;;;14.55;58.57;102515.69;6157467;23;20045;-74
2022/01/20 10:05:54;;;;;;;0.95;0.50;;;;;;;15.12;57.64;102509.47;6157737;23;20009;-77
2022/01/20 10:09:12;;;;;;;;;;;;;;;;;;;;;
2022/01/20 10:11:40;;;;;;;0.93;0.60;;;;;;;16.34;55.56;102539.41;6181689;23;20080;-77
2022/01/20 10:14:09;;;;;;;0.50;0.38;;;;;;;16.89;55.12;102549.59;6178735;23;20824;-77
2022/01/20 10:16:34;;;;;;;2.95;0.73;;;;;;;17.36;52.90;102548.19;6180081;23;20009;-76
2022/01/20 10:19:13;;;;;;;;;;;;;;;;;;;;;
2022/01/20 10:21:41;;;;;;;5.63;0.50;;;;;;;18.14;51.78;102541.44;6160970;23;20096;-77
2022/01/20 10:24:10;;;;;;;4.10;0.80;;;;;;;18.52;50.75;102546.94;6183841;23;20005;-76
2022/01/20 10:26:37;;;;;;;4.28;0.60;;;;;;;18.97;49.88;102543.56;6156891;23;20078;-77
2022/01/20 10:29:16;;;;;;;;;;;;;;;;;;;;;
2022/01/20 10:31:51;;;;;;;3.10;0.90;;;;;;;19.55;47.00;102534.28;6187625;23;20080;-76
2022/01/20 10:34:30;;;;;;;;;;;;;;;20.24;45.08;102565.41;6158437;23;20047;-75
2022/01/20 10:37:01;;;;;;;1.95;0.90;;;;;;;20.35;44.46;102569.81;6155136;23;20327;-76
2022/01/20 10:39:34;;;;;;;3.60;0.90;;;;;;;20.56;42.82;102567.84;6157295;23;20371;-76
2022/01/20 10:42:22;;;;;;;;;;;;;;;;;;;;;
2022/01/20 10:45:01;;;;;;;2.15;0.65;;;;;;;21.15;41.00;102556.25;6185139;23;20491;-76
2022/01/20 10:47:34;;;;;;;3.80;1.02;;;;;;;21.53;40.34;102559.38;6157321;23;20041;-76
2022/01/20 10:50:16;;;;;;;6.68;1.02;;;;;;;22.10;38.26;102571.72;6156256;23;20009;-76
2022/01/20 10:52:44;;;;;;;1.13;0.77;;;;;;;22.27;37.48;102564.91;6131616;23;20341;-77
2022/01/20 10:55:27;;;;;;;1.40;0.77;;;;;;;22.59;36.18;102586.59;6183623;23;20009;-76
2022/01/20 10:58:11;;;;;;;2.33;1.00;;;;;;;22.83;34.73;102571.81;6176493;23;20005;-76
2022/01/20 11:00:42;;;;;;;3.05;1.13;;;;;;;23.05;35.93;102562.88;6183830;23;20084;-76
2022/01/20 11:03:08;;;;;;;1.88;0.60;;;;;;;23.37;35.19;102572.53;6183583;23;20031;-76
2022/01/20 11:05:48;;;;;;;2.90;0.85;;;;;;;23.84;35.29;102559.47;6157352;23;20004;-77
2022/01/20 11:08:14;;;;;;;2.17;0.77;;;;;;;24.36;34.37;102581.00;6157027;23;20039;-77
2022/01/20 11:10:50;;;;;;;1.58;0.73;;;;;;;24.56;33.03;102576.94;6159001;23;20387;-76
2022/01/20 11:13:19;;;;;;;1.60;0.75;;;;;;;24.74;31.32;102576.06;6154894;23;20308;-76
2022/01/20 11:15:57;;;;;;;1.23;0.60;;;;;;;25.06;31.91;102579.88;6158671;23;20312;-75
2022/01/20 11:18:47;;;;;;;;;;;;;;;;;;;;;
2022/01/20 11:21:23;;;;;;;4.40;1.10;;;;;;;25.66;29.73;102574.38;6184931;23;20097;-77
2022/01/20 11:23:52;;;;;;;2.13;1.27;;;;;;;25.69;28.31;102568.13;6156071;23;20087;-76
2022/01/20 11:26:20;;;;;;;2.67;1.30;;;;;;;25.76;28.03;102568.50;6184307;23;20117;-76
2022/01/20 11:29:11;;;;;;;1.95;1.20;;;;;;;25.93;26.93;102567.78;6182467;23;20450;-76
2022/01/20 11:31:39;;;;;;;1.40;0.90;;;;;;;26.01;27.49;102569.84;6160590;23;20013;-77
2022/01/20 11:34:13;;;;;;;2.85;1.45;;;;;;;26.01;26.03;102557.81;6157680;23;20067;-76
2022/01/20 11:36:42;;;;;;;1.10;0.93;;;;;;;26.12;25.83;102559.19;6182101;23;20309;-76
2022/01/20 11:39:10;;;;;;;1.88;1.30;;;;;;;26.41;25.72;102560.66;6156038;23;20603;-77
2022/01/20 11:41:43;;;;;;;4.32;1.10;;;;;;;26.59;25.11;102562.41;6157991;23;20009;-77
2022/01/20 11:44:23;;;;;;;2.00;1.65;;;;;;;26.65;23.14;102544.25;6181707;23;20001;-78
2022/01/20 11:46:51;;;;;;;1.38;1.25;;;;;;;25.86;22.93;102551.44;6158090;23;20008;-78
2022/01/20 11:49:21;;;;;;;3.90;1.25;;;;;;;24.46;23.50;102538.84;6154560;23;20001;-76
2022/01/20 11:52:26;;;;;;;6.85;1.77;;;;;;;22.92;23.96;102541.31;6181605;23;20075;-76
2022/01/20 11:54:54;;;;;;;6.45;1.45;;;;;;;21.28;25.29;102527.78;6145164;23;20335;-76
2022/01/20 11:57:27;;;;;;;2.38;1.80;;;;;;;20.01;26.33;102525.16;6156127;23;20001;-76
2022/01/20 12:00:01;;;;;;;2.33;1.27;;;;;;;18.89;27.52;102534.94;6156848;23;20005;-76
2022/01/20 12:02:40;;;;;;;2.58;1.35;;;;;;;17.68;28.64;102522.47;6181511;23;20047;-76
2022/01/20 12:05:36;;;;;;;4.93;1.40;;;;;;;16.94;29.88;102540.53;6158916;23;20083;-75
2022/01/20 12:08:12;;;;;;;1.80;1.20;;;;;;;16.32;30.25;102533.31;6131467;23;20044;-76
2022/01/20 12:10:43;;;;;;;2.80;1.20;;;;;;;15.92;31.23;102539.88;6158008;23;20096;-75
2022/01/20 12:13:16;;;;;;;1.20;0.60;;;;;;;15.81;31.95;102531.44;6153762;23;20028;-75
2022/01/20 12:16:04;;;;;;;;;;;;;;;;;;;;;
2022/01/20 12:19:08;;;;;;;2.75;0.98;;;;;;;15.69;32.23;102508.56;6182517;23;20085;-76
2022/01/20 12:21:48;;;;;;;1.65;0.73;;;;;;;16.60;33.26;102501.09;6171166;23;20076;-76
2022/01/20 12:24:16;;;;;;;2.97;1.23;;;;;;;18.29;30.85;102511.06;6122817;23;20014;-77
2022/01/20 12:26:49;;;;;;;3.40;0.65;;;;;;;19.59;30.38;102502.09;6119487;23;20443;-76
2022/01/20 12:29:14;;;;;;;1.77;0.70;;;;;;;20.94;27.99;102506.28;6122113;23;20114;-77
2022/01/20 12:31:53;;;;;;;4.18;0.50;;;;;;;21.75;26.40;102523.56;6122375;23;20588;-76
2022/01/20 12:34:19;;;;;;;3.90;0.85;;;;;;;22.41;25.52;102532.41;6115966;23;20045;-76
2022/01/20 12:37:00;;;;;;;0.95;0.40;;;;;;;23.39;26.77;102517.22;6121727;23;20085;-75
2022/01/20 12:39:32;;;;;;;2.63;0.50;;;;;;;24.33;25.80;102528.50;6123369;23;20065;-77
2022/01/20 12:42:06;;;;;;;1.30;0.85;;;;;;;25.21;25.11;102531.13;6121470;23;20301;-76
2022/01/20 12:44:41;;;;;;;1.25;0.65;;;;;;;26.01;24.40;102529.78;6121069;23;20009;-78
2022/01/20 12:47:09;;;;;;;2.17;1.10;;;;;;;26.23;21.19;102512.91;6122625;23;20033;-76
2022/01/20 12:49:43;;;;;;;8.20;0.98;;;;;;;26.42;21.80;102520.25;6072618;23;20013;-76
2022/01/20 12:52:14;;;;;;;1.17;0.60;;;;;;;26.84;21.96;102517.94;6123011;23;20491;-76
2022/01/20 12:54:39;;;;;;;1.15;0.70;;;;;;;27.29;21.71;102534.50;6097427;23;20014;-76
2022/01/20 12:57:08;;;;;;;1.48;0.82;;;;;;;27.55;20.96;102511.19;6121959;23;20449;-76
2022/01/20 12:59:38;;;;;;;6.20;0.63;;;;;;;27.96;20.42;102521.03;6123205;23;20006;-76
2022/01/20 13:02:08;;;;;;;1.27;0.82;;;;;;;28.15;19.28;102525.47;6121829;23;20002;-75
2022/01/20 13:04:38;;;;;;;1.67;1.05;;;;;;;28.20;18.17;102516.88;6122111;23;20089;-75
2022/01/20 13:07:11;;;;;;;0.93;0.77;;;;;;;28.35;19.32;102513.47;6116412;23;20010;-75
2022/01/20 13:13:46;;;;;;;0.90;0.60;;;;;;;29.76;19.00;102502.84;5975928;24;20099;-76
2022/01/20 13:16:21;;;;;;;2.83;0.52;;;;;;;29.72;18.25;102490.63;5914777;23;20159;-78
2022/01/20 13:19:20;;;;;;;9.10;0.95;;;;;;;29.56;16.98;102503.72;6119826;23;20013;-75
2022/01/20 13:21:51;;;;;;;0.63;0.60;;;;;;;29.34;16.97;102502.13;6105522;23;20053;-74
2022/01/20 13:24:25;;;;;;;2.38;0.90;;;;;;;29.28;16.83;102509.13;6151176;23;20017;-74
2022/01/20 13:26:55;;;;;;;1.10;0.88;;;;;;;29.17;16.94;102495.41;6151228;23;20005;-76
2022/01/20 13:29:31;;;;;;;2.75;0.50;;;;;;;29.35;16.85;102498.97;6151453;23;20005;-75